Карточка аэропорта UAKK

Внимание!
Информация на этой странице в стадии наполнения.
Если вы не увидели какой-то информации, или заметили неточность - пожалуйста сообщите нам!
Спасибо!
Команда RU-STAFF
Название аэропортаКараганда
Название аэропорта (англ.)Karaganda
Превышение1768 ft. (538.9 m.)
Координаты49°40.302', 73°20.118'
Высота перехода10000
Эшелон переходаby ATC
Коды ответчика0630-0637, 7220-7227
Зона ОрВДАстана РПИ (UACN)
Данные METARUAKK 031500Z 22001MPS CAVOK M23/M25 Q1028 NOSIG RMK QFE723/0964
Проноз погоды (TAF)UAKK 031102Z 0312/0412 VRB02MPS 9999 SCT030 SCT100 TXM08/0410Z TNM18/0402Z TEMPO 0312/0316 18005MPS 5000 BR SCT011 FM031600 18003MPS 5000 BR SCT011 BKN030 TEMPO 0316/0402 1000 BKN005 BECMG 0402/0404 23005MPS TEMPO 0402/0412 23005G10MPS 3100 -SN DRSN
NOTAMshow/hide NOTAM
AWOS   TABLE

Информация о ВПП

ВПП Длина ВПП (м.) Покрытие Курс ВПП Частота ILS
053601Железобетон50109.9
233601Железобетон230111.7

Диспетчерские позиции




Спутниковое изображение